CYSM

Fort Smith Airport

Fort Smith, Northwest Territories, Canada
TAF CYSM 241738Z 2418/2506 31006KT P6SM SCT030 BKN100 TEMPO 2418/2501 P6SM -RA BKN015 BKN030 FM250100 31006KT P6SM SCT030 RMK NXT FCST BY 250000Z
Issued Valid From Valid To
Sep-24 @ 17:38 UTC
(6 hours ago)
Sep-24 @ 18:00 UTC
(6 hours ago)
Sep-25 @ 06:00 UTC
(in 6 hours)
Sep-24 @ 18:00 to Sep-25 @ 01:00
TAF CYSM 241738Z 2418/2506 31006KT P6SM SCT030 BKN100
Wind Visibility Clouds
310° at 6 knots Greater than 6 miles
  • Scattered at 3,000' AGL
  • Broken at 10,000' AGL
Temporary Sep-24 @ 18:00 to Sep-25 @ 01:00
TEMPO 2418/2501 P6SM -RA BKN015 BKN030
Visibility Clouds Conditions
Greater than 6 miles
  • Broken at 1,500' AGL
  • Broken at 3,000' AGL
  • Light Rain
From Sep-25 @ 01:00 to Sep-25 @ 06:00
FM250100 31006KT P6SM SCT030 RMK NXT FCST BY 250000Z
Wind Visibility Clouds
310° at 6 knots Greater than 6 miles
  • Scattered at 3,000' AGL
TAF CYSM 241738Z 2418/2506 31006KT P6SM SCT030 BKN100 TEMPO 2418/2501 P6SM -RA BKN015 BKN030 FM250100 31006KT P6SM SCT030 RMK NXT FCST BY 250000Z
Issued Sep-24 @ 17:38 UTC
(6 hours ago)
Valid From Sep-24 @ 18:00 UTC
(6 hours ago)
Valid To Sep-25 @ 06:00 UTC
(in 6 hours)
Sep-24 @ 18:00 - Sep-25 @ 01:00
Wind Visibility
310° at 6 knots Greater than 6 miles
Clouds
  • Scattered at 3,000' AGL
  • Broken at 10,000' AGL
Temporary Sep-24 @ 18:00 - Sep-25 @ 01:00
Clouds
  • Broken at 1,500' AGL
  • Broken at 3,000' AGL
Conditions
  • Light Rain
From Sep-25 @ 01:00 - Sep-25 @ 06:00
Wind Visibility
310° at 6 knots Greater than 6 miles
Clouds
  • Scattered at 3,000' AGL